sensor_id;sensor_type;location;lat;lon;timestamp;P1;durP1;ratioP1;P2;durP2;ratioP2
64052;SDS011;50299;49.524;8.536;2023-03-24T00:00:15;6.32;;;5.20;;
64052;SDS011;50299;49.524;8.536;2023-03-24T00:02:45;5.45;;;5.05;;
64052;SDS011;50299;49.524;8.536;2023-03-24T00:05:15;4.95;;;4.55;;
64052;SDS011;50299;49.524;8.536;2023-03-24T00:07:43;5.63;;;5.13;;
64052;SDS011;50299;49.524;8.536;2023-03-24T00:10:13;4.07;;;3.70;;
64052;SDS011;50299;49.524;8.536;2023-03-24T00:12:44;4.85;;;4.40;;
64052;SDS011;50299;49.524;8.536;2023-03-24T00:15:20;5.13;;;4.70;;
64052;SDS011;50299;49.524;8.536;2023-03-24T00:17:49;4.70;;;4.30;;
64052;SDS011;50299;49.524;8.536;2023-03-24T00:20:17;4.68;;;3.97;;
64052;SDS011;50299;49.524;8.536;2023-03-24T00:25:16;6.43;;;4.78;;
64052;SDS011;50299;49.524;8.536;2023-03-24T00:27:44;5.47;;;5.05;;
64052;SDS011;50299;49.524;8.536;2023-03-24T00:30:14;4.75;;;4.32;;
64052;SDS011;50299;49.524;8.536;2023-03-24T00:32:43;5.40;;;4.90;;
64052;SDS011;50299;49.524;8.536;2023-03-24T00:35:11;4.78;;;4.38;;
64052;SDS011;50299;49.524;8.536;2023-03-24T00:37:40;4.70;;;4.30;;
64052;SDS011;50299;49.524;8.536;2023-03-24T00:40:09;5.30;;;4.80;;
64052;SDS011;50299;49.524;8.536;2023-03-24T00:42:41;5.30;;;4.32;;
64052;SDS011;50299;49.524;8.536;2023-03-24T00:45:13;4.30;;;3.83;;
64052;SDS011;50299;49.524;8.536;2023-03-24T00:47:43;5.32;;;4.50;;
64052;SDS011;50299;49.524;8.536;2023-03-24T00:50:11;4.60;;;4.20;;
64052;SDS011;50299;49.524;8.536;2023-03-24T00:52:40;7.90;;;5.00;;
64052;SDS011;50299;49.524;8.536;2023-03-24T00:55:11;4.70;;;4.20;;
64052;SDS011;50299;49.524;8.536;2023-03-24T00:57:44;5.00;;;4.10;;
64052;SDS011;50299;49.524;8.536;2023-03-24T01:00:23;4.80;;;4.40;;
64052;SDS011;50299;49.524;8.536;2023-03-24T01:02:53;5.55;;;4.60;;
64052;SDS011;50299;49.524;8.536;2023-03-24T01:05:23;5.13;;;4.63;;
64052;SDS011;50299;49.524;8.536;2023-03-24T01:07:56;5.72;;;4.97;;
64052;SDS011;50299;49.524;8.536;2023-03-24T01:10:24;5.45;;;5.03;;
64052;SDS011;50299;49.524;8.536;2023-03-24T01:12:56;5.43;;;4.93;;
64052;SDS011;50299;49.524;8.536;2023-03-24T01:15:25;5.45;;;4.93;;
64052;SDS011;50299;49.524;8.536;2023-03-24T01:17:54;6.20;;;4.60;;
64052;SDS011;50299;49.524;8.536;2023-03-24T01:20:22;5.00;;;4.28;;
64052;SDS011;50299;49.524;8.536;2023-03-24T01:22:49;5.30;;;4.80;;
64052;SDS011;50299;49.524;8.536;2023-03-24T01:25:17;4.30;;;3.97;;
64052;SDS011;50299;49.524;8.536;2023-03-24T01:27:47;3.60;;;3.30;;
64052;SDS011;50299;49.524;8.536;2023-03-24T01:30:16;5.00;;;4.60;;
64052;SDS011;50299;49.524;8.536;2023-03-24T01:32:45;4.57;;;4.18;;
64052;SDS011;50299;49.524;8.536;2023-03-24T01:35:12;4.68;;;3.85;;
64052;SDS011;50299;49.524;8.536;2023-03-24T01:37:39;4.47;;;4.07;;
64052;SDS011;50299;49.524;8.536;2023-03-24T01:40:06;4.85;;;4.38;;
64052;SDS011;50299;49.524;8.536;2023-03-24T01:42:36;3.97;;;3.67;;
64052;SDS011;50299;49.524;8.536;2023-03-24T01:50:48;3.35;;;2.70;;
64052;SDS011;50299;49.524;8.536;2023-03-24T01:53:19;4.85;;;4.38;;
64052;SDS011;50299;49.524;8.536;2023-03-24T01:55:46;5.57;;;4.30;;
64052;SDS011;50299;49.524;8.536;2023-03-24T01:58:14;5.75;;;3.95;;
64052;SDS011;50299;49.524;8.536;2023-03-24T02:00:41;3.95;;;3.55;;
64052;SDS011;50299;49.524;8.536;2023-03-24T02:03:10;4.55;;;4.25;;
64052;SDS011;50299;49.524;8.536;2023-03-24T02:05:41;4.38;;;4.07;;
64052;SDS011;50299;49.524;8.536;2023-03-24T02:08:27;3.78;;;3.20;;
64052;SDS011;50299;49.524;8.536;2023-03-24T02:10:58;4.18;;;3.78;;
64052;SDS011;50299;49.524;8.536;2023-03-24T02:13:26;4.85;;;4.45;;
64052;SDS011;50299;49.524;8.536;2023-03-24T02:22:04;3.95;;;3.38;;
64052;SDS011;50299;49.524;8.536;2023-03-24T02:44:05;4.10;;;3.72;;
64052;SDS011;50299;49.524;8.536;2023-03-24T02:46:48;2.85;;;2.58;;
64052;SDS011;50299;49.524;8.536;2023-03-24T02:49:44;3.72;;;3.47;;
64052;SDS011;50299;49.524;8.536;2023-03-24T03:03:02;3.15;;;2.70;;
64052;SDS011;50299;49.524;8.536;2023-03-24T03:05:35;4.07;;;3.42;;
64052;SDS011;50299;49.524;8.536;2023-03-24T03:08:08;3.05;;;2.75;;
64052;SDS011;50299;49.524;8.536;2023-03-24T03:10:39;3.10;;;2.90;;
64052;SDS011;50299;49.524;8.536;2023-03-24T03:13:11;3.83;;;3.45;;
64052;SDS011;50299;49.524;8.536;2023-03-24T03:15:43;3.78;;;3.42;;
64052;SDS011;50299;49.524;8.536;2023-03-24T03:18:13;3.55;;;3.25;;
64052;SDS011;50299;49.524;8.536;2023-03-24T03:20:47;3.78;;;3.08;;
64052;SDS011;50299;49.524;8.536;2023-03-24T03:23:29;4.13;;;3.83;;
64052;SDS011;50299;49.524;8.536;2023-03-24T03:26:01;4.22;;;3.92;;
64052;SDS011;50299;49.524;8.536;2023-03-24T03:28:35;4.00;;;3.58;;
64052;SDS011;50299;49.524;8.536;2023-03-24T03:31:09;3.95;;;3.65;;
64052;SDS011;50299;49.524;8.536;2023-03-24T03:34:02;4.43;;;3.78;;
64052;SDS011;50299;49.524;8.536;2023-03-24T03:37:02;3.38;;;3.08;;
64052;SDS011;50299;49.524;8.536;2023-03-24T03:39:48;4.57;;;3.75;;
64052;SDS011;50299;49.524;8.536;2023-03-24T03:42:19;4.53;;;4.22;;
64052;SDS011;50299;49.524;8.536;2023-03-24T03:44:47;4.70;;;3.83;;
64052;SDS011;50299;49.524;8.536;2023-03-24T03:47:13;4.95;;;3.20;;
64052;SDS011;50299;49.524;8.536;2023-03-24T03:49:41;3.85;;;3.55;;
64052;SDS011;50299;49.524;8.536;2023-03-24T03:52:08;4.07;;;3.65;;
64052;SDS011;50299;49.524;8.536;2023-03-24T03:54:35;4.13;;;3.10;;
64052;SDS011;50299;49.524;8.536;2023-03-24T03:57:04;5.28;;;3.88;;
64052;SDS011;50299;49.524;8.536;2023-03-24T03:59:32;4.25;;;3.90;;
64052;SDS011;50299;49.524;8.536;2023-03-24T04:10:20;4.57;;;3.35;;
64052;SDS011;50299;49.524;8.536;2023-03-24T04:15:44;5.10;;;4.60;;
64052;SDS011;50299;49.524;8.536;2023-03-24T04:18:40;4.22;;;3.83;;
64052;SDS011;50299;49.524;8.536;2023-03-24T04:21:23;3.42;;;3.13;;
64052;SDS011;50299;49.524;8.536;2023-03-24T04:26:56;4.13;;;3.72;;
64052;SDS011;50299;49.524;8.536;2023-03-24T04:29:34;4.22;;;3.85;;
64052;SDS011;50299;49.524;8.536;2023-03-24T04:32:10;3.53;;;3.22;;
64052;SDS011;50299;49.524;8.536;2023-03-24T04:34:48;5.63;;;4.30;;
64052;SDS011;50299;49.524;8.536;2023-03-24T04:37:21;4.82;;;3.50;;
64052;SDS011;50299;49.524;8.536;2023-03-24T04:39:51;4.65;;;4.30;;
64052;SDS011;50299;49.524;8.536;2023-03-24T04:42:34;4.00;;;3.55;;
64052;SDS011;50299;49.524;8.536;2023-03-24T04:45:04;4.60;;;4.25;;
64052;SDS011;50299;49.524;8.536;2023-03-24T04:47:33;4.10;;;3.80;;
64052;SDS011;50299;49.524;8.536;2023-03-24T04:50:10;4.50;;;4.20;;
64052;SDS011;50299;49.524;8.536;2023-03-24T04:52:39;5.32;;;3.60;;
64052;SDS011;50299;49.524;8.536;2023-03-24T04:58:17;4.18;;;3.83;;
64052;SDS011;50299;49.524;8.536;2023-03-24T05:00:46;5.05;;;4.55;;
64052;SDS011;50299;49.524;8.536;2023-03-24T05:03:13;5.35;;;4.90;;
64052;SDS011;50299;49.524;8.536;2023-03-24T05:05:41;5.38;;;3.97;;
64052;SDS011;50299;49.524;8.536;2023-03-24T05:08:09;4.07;;;3.78;;
64052;SDS011;50299;49.524;8.536;2023-03-24T05:10:36;4.07;;;3.75;;
64052;SDS011;50299;49.524;8.536;2023-03-24T05:13:03;5.45;;;5.05;;
64052;SDS011;50299;49.524;8.536;2023-03-24T05:15:31;5.53;;;5.03;;
64052;SDS011;50299;49.524;8.536;2023-03-24T05:17:57;5.57;;;4.80;;
64052;SDS011;50299;49.524;8.536;2023-03-24T05:20:24;6.05;;;5.47;;
64052;SDS011;50299;49.524;8.536;2023-03-24T05:22:51;5.18;;;4.78;;
64052;SDS011;50299;49.524;8.536;2023-03-24T05:25:18;4.47;;;4.07;;
64052;SDS011;50299;49.524;8.536;2023-03-24T05:27:45;5.18;;;4.78;;
64052;SDS011;50299;49.524;8.536;2023-03-24T05:30:12;5.10;;;4.75;;
64052;SDS011;50299;49.524;8.536;2023-03-24T05:32:39;4.35;;;3.95;;
64052;SDS011;50299;49.524;8.536;2023-03-24T05:35:06;4.82;;;3.67;;
64052;SDS011;50299;49.524;8.536;2023-03-24T05:37:32;4.05;;;3.63;;
64052;SDS011;50299;49.524;8.536;2023-03-24T05:39:59;4.18;;;3.60;;
64052;SDS011;50299;49.524;8.536;2023-03-24T05:42:26;3.92;;;3.63;;
64052;SDS011;50299;49.524;8.536;2023-03-24T05:44:52;3.20;;;3.00;;
64052;SDS011;50299;49.524;8.536;2023-03-24T05:47:19;4.18;;;3.00;;
64052;SDS011;50299;49.524;8.536;2023-03-24T05:49:45;4.43;;;4.13;;
64052;SDS011;50299;49.524;8.536;2023-03-24T05:52:12;4.45;;;4.05;;
64052;SDS011;50299;49.524;8.536;2023-03-24T05:54:43;4.43;;;4.00;;
64052;SDS011;50299;49.524;8.536;2023-03-24T05:57:14;4.03;;;3.72;;
64052;SDS011;50299;49.524;8.536;2023-03-24T05:59:41;4.43;;;4.03;;
64052;SDS011;50299;49.524;8.536;2023-03-24T06:02:08;4.78;;;4.43;;
64052;SDS011;50299;49.524;8.536;2023-03-24T06:04:35;4.93;;;4.45;;
64052;SDS011;50299;49.524;8.536;2023-03-24T06:07:02;4.90;;;4.50;;
64052;SDS011;50299;49.524;8.536;2023-03-24T06:09:29;4.68;;;4.32;;
64052;SDS011;50299;49.524;8.536;2023-03-24T06:12:04;4.15;;;3.78;;
64052;SDS011;50299;49.524;8.536;2023-03-24T06:14:31;4.70;;;3.83;;
64052;SDS011;50299;49.524;8.536;2023-03-24T06:16:58;4.60;;;4.25;;
64052;SDS011;50299;49.524;8.536;2023-03-24T06:19:26;4.25;;;3.92;;
64052;SDS011;50299;49.524;8.536;2023-03-24T06:21:55;4.38;;;3.40;;
64052;SDS011;50299;49.524;8.536;2023-03-24T06:24:28;4.30;;;3.90;;
64052;SDS011;50299;49.524;8.536;2023-03-24T06:26:57;5.22;;;4.35;;
64052;SDS011;50299;49.524;8.536;2023-03-24T06:29:30;4.80;;;4.35;;
64052;SDS011;50299;49.524;8.536;2023-03-24T06:31:56;4.63;;;4.03;;
64052;SDS011;50299;49.524;8.536;2023-03-24T06:34:23;4.05;;;3.65;;
64052;SDS011;50299;49.524;8.536;2023-03-24T06:36:50;4.93;;;4.53;;
64052;SDS011;50299;49.524;8.536;2023-03-24T06:39:17;5.30;;;4.70;;
64052;SDS011;50299;49.524;8.536;2023-03-24T06:41:44;4.00;;;3.70;;
64052;SDS011;50299;49.524;8.536;2023-03-24T06:44:10;6.55;;;4.70;;
64052;SDS011;50299;49.524;8.536;2023-03-24T06:46:37;5.63;;;5.18;;
64052;SDS011;50299;49.524;8.536;2023-03-24T06:49:04;6.15;;;5.55;;
64052;SDS011;50299;49.524;8.536;2023-03-24T06:51:30;6.28;;;5.68;;
64052;SDS011;50299;49.524;8.536;2023-03-24T06:53:57;5.03;;;4.63;;
64052;SDS011;50299;49.524;8.536;2023-03-24T06:56:23;5.85;;;5.35;;
64052;SDS011;50299;49.524;8.536;2023-03-24T06:58:50;5.88;;;5.38;;
64052;SDS011;50299;49.524;8.536;2023-03-24T07:01:17;6.95;;;5.20;;
64052;SDS011;50299;49.524;8.536;2023-03-24T07:03:43;7.75;;;5.43;;
64052;SDS011;50299;49.524;8.536;2023-03-24T07:06:10;8.00;;;7.30;;
64052;SDS011;50299;49.524;8.536;2023-03-24T07:08:36;7.88;;;6.85;;
64052;SDS011;50299;49.524;8.536;2023-03-24T07:11:04;8.43;;;7.45;;
64052;SDS011;50299;49.524;8.536;2023-03-24T07:13:33;8.30;;;7.35;;
64052;SDS011;50299;49.524;8.536;2023-03-24T07:16:00;8.30;;;7.53;;
64052;SDS011;50299;49.524;8.536;2023-03-24T07:18:26;7.68;;;7.07;;
64052;SDS011;50299;49.524;8.536;2023-03-24T07:20:53;8.15;;;7.45;;
64052;SDS011;50299;49.524;8.536;2023-03-24T07:23:19;8.10;;;7.30;;
64052;SDS011;50299;49.524;8.536;2023-03-24T07:25:46;7.28;;;6.38;;
64052;SDS011;50299;49.524;8.536;2023-03-24T07:28:12;5.88;;;5.38;;
64052;SDS011;50299;49.524;8.536;2023-03-24T07:30:39;5.63;;;4.40;;
64052;SDS011;50299;49.524;8.536;2023-03-24T07:33:18;4.70;;;4.18;;
64052;SDS011;50299;49.524;8.536;2023-03-24T07:35:44;6.13;;;4.68;;
64052;SDS011;50299;49.524;8.536;2023-03-24T07:38:11;4.53;;;4.13;;
64052;SDS011;50299;49.524;8.536;2023-03-24T07:40:38;5.07;;;4.57;;
64052;SDS011;50299;49.524;8.536;2023-03-24T07:43:05;4.25;;;3.85;;
64052;SDS011;50299;49.524;8.536;2023-03-24T07:48:00;5.93;;;5.40;;
64052;SDS011;50299;49.524;8.536;2023-03-24T07:50:27;6.30;;;4.55;;
64052;SDS011;50299;49.524;8.536;2023-03-24T07:52:55;4.05;;;3.67;;
64052;SDS011;50299;49.524;8.536;2023-03-24T07:55:25;5.43;;;4.93;;
64052;SDS011;50299;49.524;8.536;2023-03-24T07:57:52;5.28;;;4.78;;
64052;SDS011;50299;49.524;8.536;2023-03-24T08:00:19;4.45;;;4.03;;
64052;SDS011;50299;49.524;8.536;2023-03-24T08:02:47;5.40;;;4.85;;
64052;SDS011;50299;49.524;8.536;2023-03-24T08:05:15;4.60;;;4.30;;
64052;SDS011;50299;49.524;8.536;2023-03-24T08:07:45;5.35;;;4.30;;
64052;SDS011;50299;49.524;8.536;2023-03-24T08:10:20;5.10;;;4.70;;
64052;SDS011;50299;49.524;8.536;2023-03-24T08:12:48;5.75;;;4.10;;
64052;SDS011;50299;49.524;8.536;2023-03-24T08:15:15;4.72;;;4.00;;
64052;SDS011;50299;49.524;8.536;2023-03-24T08:17:43;5.40;;;4.93;;
64052;SDS011;50299;49.524;8.536;2023-03-24T08:20:10;10.95;;;5.57;;
64052;SDS011;50299;49.524;8.536;2023-03-24T08:22:41;4.47;;;4.07;;
64052;SDS011;50299;49.524;8.536;2023-03-24T08:25:09;5.47;;;5.07;;
64052;SDS011;50299;49.524;8.536;2023-03-24T08:27:38;3.95;;;3.58;;
64052;SDS011;50299;49.524;8.536;2023-03-24T08:30:05;5.13;;;4.72;;
64052;SDS011;50299;49.524;8.536;2023-03-24T08:32:35;4.50;;;4.10;;
64052;SDS011;50299;49.524;8.536;2023-03-24T08:35:03;7.75;;;4.57;;
64052;SDS011;50299;49.524;8.536;2023-03-24T08:37:31;3.88;;;3.58;;
64052;SDS011;50299;49.524;8.536;2023-03-24T08:39:57;4.50;;;4.20;;
64052;SDS011;50299;49.524;8.536;2023-03-24T08:42:30;4.57;;;4.18;;
64052;SDS011;50299;49.524;8.536;2023-03-24T08:44:57;4.32;;;3.92;;
64052;SDS011;50299;49.524;8.536;2023-03-24T08:49:54;4.18;;;3.88;;
64052;SDS011;50299;49.524;8.536;2023-03-24T08:52:23;3.42;;;3.13;;
64052;SDS011;50299;49.524;8.536;2023-03-24T08:54:50;4.22;;;3.83;;
64052;SDS011;50299;49.524;8.536;2023-03-24T08:57:16;3.88;;;3.58;;
64052;SDS011;50299;49.524;8.536;2023-03-24T08:59:43;4.00;;;3.70;;
64052;SDS011;50299;49.524;8.536;2023-03-24T09:02:14;3.80;;;3.50;;
64052;SDS011;50299;49.524;8.536;2023-03-24T09:04:42;3.90;;;3.47;;
64052;SDS011;50299;49.524;8.536;2023-03-24T09:07:11;3.30;;;3.03;;
64052;SDS011;50299;49.524;8.536;2023-03-24T09:09:37;3.63;;;3.00;;
64052;SDS011;50299;49.524;8.536;2023-03-24T09:12:08;3.88;;;3.47;;
64052;SDS011;50299;49.524;8.536;2023-03-24T09:14:34;3.33;;;3.03;;
64052;SDS011;50299;49.524;8.536;2023-03-24T09:17:01;3.72;;;3.53;;
64052;SDS011;50299;49.524;8.536;2023-03-24T09:19:28;4.00;;;3.70;;
64052;SDS011;50299;49.524;8.536;2023-03-24T09:21:55;4.50;;;3.53;;
64052;SDS011;50299;49.524;8.536;2023-03-24T09:24:21;3.28;;;3.03;;
64052;SDS011;50299;49.524;8.536;2023-03-24T09:26:48;3.78;;;3.45;;
64052;SDS011;50299;49.524;8.536;2023-03-24T09:29:14;3.75;;;3.45;;
64052;SDS011;50299;49.524;8.536;2023-03-24T09:31:40;3.47;;;3.20;;
64052;SDS011;50299;49.524;8.536;2023-03-24T09:34:07;4.75;;;3.92;;
64052;SDS011;50299;49.524;8.536;2023-03-24T09:36:33;3.47;;;3.28;;
64052;SDS011;50299;49.524;8.536;2023-03-24T09:39:00;3.47;;;3.17;;
64052;SDS011;50299;49.524;8.536;2023-03-24T09:41:27;3.55;;;3.25;;
64052;SDS011;50299;49.524;8.536;2023-03-24T09:44:45;4.20;;;2.88;;
64052;SDS011;50299;49.524;8.536;2023-03-24T09:47:01;3.97;;;3.40;;
64052;SDS011;50299;49.524;8.536;2023-03-24T09:49:32;3.72;;;3.42;;
64052;SDS011;50299;49.524;8.536;2023-03-24T09:52:05;3.75;;;3.45;;
64052;SDS011;50299;49.524;8.536;2023-03-24T09:54:46;4.18;;;3.78;;
64052;SDS011;50299;49.524;8.536;2023-03-24T09:57:20;4.20;;;3.72;;
64052;SDS011;50299;49.524;8.536;2023-03-24T09:59:51;3.78;;;3.40;;
64052;SDS011;50299;49.524;8.536;2023-03-24T10:02:19;4.43;;;4.03;;
64052;SDS011;50299;49.524;8.536;2023-03-24T10:04:47;3.75;;;3.45;;
64052;SDS011;50299;49.524;8.536;2023-03-24T10:09:49;4.07;;;3.60;;
64052;SDS011;50299;49.524;8.536;2023-03-24T10:12:43;4.82;;;4.43;;
64052;SDS011;50299;49.524;8.536;2023-03-24T10:20:38;4.18;;;3.88;;
64052;SDS011;50299;49.524;8.536;2023-03-24T10:23:11;5.53;;;4.45;;
64052;SDS011;50299;49.524;8.536;2023-03-24T10:25:51;4.45;;;3.17;;
64052;SDS011;50299;49.524;8.536;2023-03-24T10:28:26;4.75;;;4.35;;
64052;SDS011;50299;49.524;8.536;2023-03-24T10:31:01;7.00;;;3.90;;
64052;SDS011;50299;49.524;8.536;2023-03-24T10:33:34;4.32;;;3.50;;
64052;SDS011;50299;49.524;8.536;2023-03-24T10:36:11;4.03;;;3.63;;
64052;SDS011;50299;49.524;8.536;2023-03-24T10:38:41;4.28;;;3.88;;
64052;SDS011;50299;49.524;8.536;2023-03-24T10:41:11;4.95;;;4.50;;
64052;SDS011;50299;49.524;8.536;2023-03-24T10:43:42;6.28;;;4.20;;
64052;SDS011;50299;49.524;8.536;2023-03-24T10:46:11;4.03;;;3.47;;
64052;SDS011;50299;49.524;8.536;2023-03-24T10:48:45;5.28;;;4.13;;
64052;SDS011;50299;49.524;8.536;2023-03-24T10:51:16;4.68;;;4.28;;
64052;SDS011;50299;49.524;8.536;2023-03-24T10:53:44;3.95;;;3.13;;
64052;SDS011;50299;49.524;8.536;2023-03-24T10:56:17;3.53;;;3.22;;
64052;SDS011;50299;49.524;8.536;2023-03-24T10:59:04;3.75;;;3.20;;
64052;SDS011;50299;49.524;8.536;2023-03-24T11:01:44;6.32;;;4.47;;
64052;SDS011;50299;49.524;8.536;2023-03-24T11:04:13;2.97;;;2.53;;
64052;SDS011;50299;49.524;8.536;2023-03-24T11:06:52;2.60;;;2.35;;
64052;SDS011;50299;49.524;8.536;2023-03-24T11:09:27;2.15;;;2.05;;
64052;SDS011;50299;49.524;8.536;2023-03-24T11:11:54;2.63;;;2.42;;
64052;SDS011;50299;49.524;8.536;2023-03-24T11:14:25;3.60;;;2.30;;
64052;SDS011;50299;49.524;8.536;2023-03-24T11:16:54;2.33;;;2.13;;
64052;SDS011;50299;49.524;8.536;2023-03-24T11:19:33;4.00;;;2.55;;
64052;SDS011;50299;49.524;8.536;2023-03-24T11:22:02;3.28;;;1.88;;
64052;SDS011;50299;49.524;8.536;2023-03-24T11:24:34;3.30;;;2.38;;
64052;SDS011;50299;49.524;8.536;2023-03-24T11:27:02;3.92;;;2.83;;
64052;SDS011;50299;49.524;8.536;2023-03-24T11:29:30;4.03;;;3.08;;
64052;SDS011;50299;49.524;8.536;2023-03-24T11:34:36;3.30;;;2.72;;
64052;SDS011;50299;49.524;8.536;2023-03-24T11:37:07;3.30;;;2.80;;
64052;SDS011;50299;49.524;8.536;2023-03-24T11:39:39;2.78;;;2.20;;
64052;SDS011;50299;49.524;8.536;2023-03-24T11:42:15;3.97;;;2.35;;
64052;SDS011;50299;49.524;8.536;2023-03-24T11:44:47;3.83;;;2.38;;
64052;SDS011;50299;49.524;8.536;2023-03-24T11:47:32;2.10;;;2.00;;
64052;SDS011;50299;49.524;8.536;2023-03-24T11:55:43;2.83;;;2.60;;
64052;SDS011;50299;49.524;8.536;2023-03-24T12:00:54;2.80;;;2.60;;
64052;SDS011;50299;49.524;8.536;2023-03-24T12:06:44;3.30;;;3.00;;
64052;SDS011;50299;49.524;8.536;2023-03-24T12:23:58;3.45;;;1.83;;
64052;SDS011;50299;49.524;8.536;2023-03-24T12:26:32;4.00;;;1.60;;
64052;SDS011;50299;49.524;8.536;2023-03-24T12:29:26;2.22;;;2.00;;
64052;SDS011;50299;49.524;8.536;2023-03-24T12:37:52;2.58;;;2.13;;
64052;SDS011;50299;49.524;8.536;2023-03-24T12:41:23;2.30;;;2.10;;
64052;SDS011;50299;49.524;8.536;2023-03-24T12:52:12;2.38;;;2.17;;
64052;SDS011;50299;49.524;8.536;2023-03-24T12:54:49;2.38;;;1.73;;
64052;SDS011;50299;49.524;8.536;2023-03-24T12:57:22;1.60;;;1.50;;
64052;SDS011;50299;49.524;8.536;2023-03-24T12:59:55;1.98;;;1.55;;
64052;SDS011;50299;49.524;8.536;2023-03-24T13:02:32;2.55;;;2.45;;
64052;SDS011;50299;49.524;8.536;2023-03-24T13:05:07;3.92;;;2.38;;
64052;SDS011;50299;49.524;8.536;2023-03-24T13:07:42;3.30;;;2.60;;
64052;SDS011;50299;49.524;8.536;2023-03-24T13:10:32;3.80;;;2.63;;
64052;SDS011;50299;49.524;8.536;2023-03-24T13:13:16;3.92;;;3.10;;
64052;SDS011;50299;49.524;8.536;2023-03-24T13:15:48;3.00;;;2.80;;
64052;SDS011;50299;49.524;8.536;2023-03-24T13:18:25;2.92;;;2.72;;
64052;SDS011;50299;49.524;8.536;2023-03-24T13:21:11;3.38;;;1.92;;
64052;SDS011;50299;49.524;8.536;2023-03-24T13:29:03;2.78;;;2.58;;
64052;SDS011;50299;49.524;8.536;2023-03-24T13:34:25;3.03;;;2.83;;
64052;SDS011;50299;49.524;8.536;2023-03-24T13:36:58;3.55;;;2.50;;
64052;SDS011;50299;49.524;8.536;2023-03-24T13:39:29;4.63;;;2.60;;
64052;SDS011;50299;49.524;8.536;2023-03-24T13:41:57;3.58;;;2.10;;
64052;SDS011;50299;49.524;8.536;2023-03-24T13:47:13;2.85;;;2.58;;
64052;SDS011;50299;49.524;8.536;2023-03-24T13:49:49;5.07;;;2.25;;
64052;SDS011;50299;49.524;8.536;2023-03-24T13:52:30;4.35;;;1.88;;
64052;SDS011;50299;49.524;8.536;2023-03-24T13:55:00;2.08;;;1.90;;
64052;SDS011;50299;49.524;8.536;2023-03-24T13:57:33;2.55;;;1.80;;
64052;SDS011;50299;49.524;8.536;2023-03-24T14:08:08;2.17;;;1.80;;
64052;SDS011;50299;49.524;8.536;2023-03-24T14:10:41;3.75;;;1.92;;
64052;SDS011;50299;49.524;8.536;2023-03-24T14:15:54;3.08;;;1.83;;
64052;SDS011;50299;49.524;8.536;2023-03-24T14:26:14;3.03;;;1.58;;
64052;SDS011;50299;49.524;8.536;2023-03-24T14:28:56;4.57;;;2.03;;
64052;SDS011;50299;49.524;8.536;2023-03-24T14:31:30;2.90;;;1.95;;
64052;SDS011;50299;49.524;8.536;2023-03-24T14:34:12;3.03;;;1.33;;
64052;SDS011;50299;49.524;8.536;2023-03-24T14:36:45;3.90;;;1.67;;
64052;SDS011;50299;49.524;8.536;2023-03-24T14:44:58;3.40;;;1.52;;
64052;SDS011;50299;49.524;8.536;2023-03-24T14:47:29;3.22;;;1.30;;
64052;SDS011;50299;49.524;8.536;2023-03-24T14:49:57;3.53;;;1.73;;
64052;SDS011;50299;49.524;8.536;2023-03-24T14:52:33;2.10;;;1.65;;
64052;SDS011;50299;49.524;8.536;2023-03-24T14:55:15;1.73;;;1.42;;
64052;SDS011;50299;49.524;8.536;2023-03-24T14:57:45;3.85;;;1.60;;
64052;SDS011;50299;49.524;8.536;2023-03-24T15:00:18;2.38;;;1.70;;
64052;SDS011;50299;49.524;8.536;2023-03-24T15:03:00;4.70;;;1.90;;
64052;SDS011;50299;49.524;8.536;2023-03-24T15:05:36;4.10;;;1.67;;
64052;SDS011;50299;49.524;8.536;2023-03-24T15:10:52;3.47;;;1.60;;
64052;SDS011;50299;49.524;8.536;2023-03-24T15:13:34;3.08;;;1.52;;
64052;SDS011;50299;49.524;8.536;2023-03-24T15:18:45;2.65;;;1.42;;
64052;SDS011;50299;49.524;8.536;2023-03-24T15:26:51;2.70;;;1.60;;
64052;SDS011;50299;49.524;8.536;2023-03-24T15:29:19;3.55;;;1.92;;
64052;SDS011;50299;49.524;8.536;2023-03-24T15:31:46;3.60;;;2.03;;
64052;SDS011;50299;49.524;8.536;2023-03-24T15:34:24;4.30;;;1.95;;
64052;SDS011;50299;49.524;8.536;2023-03-24T15:37:18;2.47;;;1.10;;
64052;SDS011;50299;49.524;8.536;2023-03-24T15:42:16;2.85;;;1.35;;
64052;SDS011;50299;49.524;8.536;2023-03-24T15:44:44;2.53;;;1.10;;
64052;SDS011;50299;49.524;8.536;2023-03-24T15:47:21;4.35;;;1.30;;
64052;SDS011;50299;49.524;8.536;2023-03-24T15:49:51;1.88;;;1.17;;
64052;SDS011;50299;49.524;8.536;2023-03-24T15:57:49;2.80;;;1.00;;
64052;SDS011;50299;49.524;8.536;2023-03-24T16:00:17;3.85;;;1.20;;
64052;SDS011;50299;49.524;8.536;2023-03-24T16:02:49;2.75;;;1.38;;
64052;SDS011;50299;49.524;8.536;2023-03-24T16:05:25;2.22;;;1.30;;
64052;SDS011;50299;49.524;8.536;2023-03-24T16:07:54;3.20;;;1.20;;
64052;SDS011;50299;49.524;8.536;2023-03-24T16:13:15;2.95;;;1.52;;
64052;SDS011;50299;49.524;8.536;2023-03-24T16:15:56;3.53;;;1.02;;
64052;SDS011;50299;49.524;8.536;2023-03-24T16:21:04;2.75;;;1.15;;
64052;SDS011;50299;49.524;8.536;2023-03-24T16:23:37;2.75;;;1.10;;
64052;SDS011;50299;49.524;8.536;2023-03-24T16:26:04;3.13;;;1.25;;
64052;SDS011;50299;49.524;8.536;2023-03-24T16:28:32;2.33;;;1.00;;
64052;SDS011;50299;49.524;8.536;2023-03-24T16:31:02;1.75;;;1.25;;
64052;SDS011;50299;49.524;8.536;2023-03-24T16:33:30;2.30;;;1.40;;
64052;SDS011;50299;49.524;8.536;2023-03-24T16:35:58;2.95;;;1.10;;
64052;SDS011;50299;49.524;8.536;2023-03-24T16:38:26;4.05;;;1.30;;
64052;SDS011;50299;49.524;8.536;2023-03-24T16:40:53;4.43;;;1.30;;
64052;SDS011;50299;49.524;8.536;2023-03-24T16:43:22;2.85;;;1.83;;
64052;SDS011;50299;49.524;8.536;2023-03-24T16:45:49;2.05;;;1.20;;
64052;SDS011;50299;49.524;8.536;2023-03-24T16:48:16;3.97;;;1.73;;
64052;SDS011;50299;49.524;8.536;2023-03-24T16:50:44;4.05;;;1.60;;
64052;SDS011;50299;49.524;8.536;2023-03-24T16:53:16;8.70;;;1.92;;
64052;SDS011;50299;49.524;8.536;2023-03-24T16:55:46;2.25;;;1.75;;
64052;SDS011;50299;49.524;8.536;2023-03-24T16:58:14;2.47;;;1.90;;
64052;SDS011;50299;49.524;8.536;2023-03-24T17:00:42;5.55;;;1.67;;
64052;SDS011;50299;49.524;8.536;2023-03-24T17:03:10;4.65;;;1.80;;
64052;SDS011;50299;49.524;8.536;2023-03-24T17:05:40;3.05;;;1.20;;
64052;SDS011;50299;49.524;8.536;2023-03-24T17:08:09;3.38;;;1.55;;
64052;SDS011;50299;49.524;8.536;2023-03-24T17:10:35;4.10;;;1.77;;
64052;SDS011;50299;49.524;8.536;2023-03-24T17:13:02;2.55;;;1.40;;
64052;SDS011;50299;49.524;8.536;2023-03-24T17:15:29;4.40;;;1.40;;
64052;SDS011;50299;49.524;8.536;2023-03-24T17:17:56;4.90;;;2.63;;
64052;SDS011;50299;49.524;8.536;2023-03-24T17:20:23;4.85;;;2.25;;
64052;SDS011;50299;49.524;8.536;2023-03-24T17:23:00;4.82;;;2.17;;
64052;SDS011;50299;49.524;8.536;2023-03-24T17:25:26;3.88;;;2.30;;
64052;SDS011;50299;49.524;8.536;2023-03-24T17:27:54;3.25;;;1.85;;
64052;SDS011;50299;49.524;8.536;2023-03-24T17:30:22;4.72;;;2.20;;
64052;SDS011;50299;49.524;8.536;2023-03-24T17:32:56;4.45;;;2.42;;
64052;SDS011;50299;49.524;8.536;2023-03-24T17:35:23;5.30;;;1.60;;
64052;SDS011;50299;49.524;8.536;2023-03-24T17:37:50;4.72;;;2.30;;
64052;SDS011;50299;49.524;8.536;2023-03-24T17:40:17;5.53;;;2.40;;
64052;SDS011;50299;49.524;8.536;2023-03-24T17:42:45;7.18;;;2.08;;
64052;SDS011;50299;49.524;8.536;2023-03-24T17:45:16;4.22;;;2.03;;
64052;SDS011;50299;49.524;8.536;2023-03-24T17:47:44;4.28;;;2.15;;
64052;SDS011;50299;49.524;8.536;2023-03-24T17:50:11;4.40;;;2.10;;
64052;SDS011;50299;49.524;8.536;2023-03-24T17:52:42;3.97;;;2.88;;
64052;SDS011;50299;49.524;8.536;2023-03-24T17:55:11;1.95;;;1.70;;
64052;SDS011;50299;49.524;8.536;2023-03-24T17:57:39;4.50;;;2.05;;
64052;SDS011;50299;49.524;8.536;2023-03-24T18:00:06;4.30;;;2.13;;
64052;SDS011;50299;49.524;8.536;2023-03-24T18:02:37;5.15;;;2.00;;
64052;SDS011;50299;49.524;8.536;2023-03-24T18:05:04;5.57;;;1.98;;
64052;SDS011;50299;49.524;8.536;2023-03-24T18:07:32;4.68;;;2.70;;